sensor_id;sensor_type;location;lat;lon;timestamp;pressure;altitude;pressure_sealevel;temperature;humidity
54122;BME280;40029;58.708;50.190;2023-05-19T00:02:15;100471.97;;;16.55;25.95
54122;BME280;40029;58.708;50.190;2023-05-19T00:04:48;100462.47;;;16.53;25.80
54122;BME280;40029;58.708;50.190;2023-05-19T00:07:21;100425.38;;;16.24;26.07
54122;BME280;40029;58.708;50.190;2023-05-19T00:09:56;100437.19;;;16.15;25.96
54122;BME280;40029;58.708;50.190;2023-05-19T00:12:27;100452.88;;;16.34;26.24
54122;BME280;40029;58.708;50.190;2023-05-19T00:15:17;100464.91;;;16.40;25.93
54122;BME280;40029;58.708;50.190;2023-05-19T00:17:48;100426.75;;;16.14;25.71
54122;BME280;40029;58.708;50.190;2023-05-19T00:20:20;100437.06;;;16.18;25.68
54122;BME280;40029;58.708;50.190;2023-05-19T00:22:51;100457.63;;;16.28;26.05
54122;BME280;40029;58.708;50.190;2023-05-19T00:25:23;100450.34;;;16.15;26.02
54122;BME280;40029;58.708;50.190;2023-05-19T00:27:54;100468.91;;;16.30;25.87
54122;BME280;40029;58.708;50.190;2023-05-19T00:30:25;100456.38;;;16.17;25.77
54122;BME280;40029;58.708;50.190;2023-05-19T00:32:56;100480.59;;;16.24;26.24
54122;BME280;40029;58.708;50.190;2023-05-19T00:35:27;100485.63;;;16.29;25.95
54122;BME280;40029;58.708;50.190;2023-05-19T00:37:59;100416.00;;;15.84;26.18
54122;BME280;40029;58.708;50.190;2023-05-19T00:40:31;100492.66;;;16.28;26.54
54122;BME280;40029;58.708;50.190;2023-05-19T00:43:05;100476.72;;;16.31;26.41
54122;BME280;40029;58.708;50.190;2023-05-19T00:45:56;100478.81;;;16.24;26.47
54122;BME280;40029;58.708;50.190;2023-05-19T00:48:28;100454.53;;;16.19;25.91
54122;BME280;40029;58.708;50.190;2023-05-19T00:50:59;100481.56;;;16.39;26.27
54122;BME280;40029;58.708;50.190;2023-05-19T00:53:37;100428.75;;;16.09;26.97
54122;BME280;40029;58.708;50.190;2023-05-19T00:56:08;100468.59;;;16.36;27.16
54122;BME280;40029;58.708;50.190;2023-05-19T00:58:41;100464.91;;;16.40;27.38
54122;BME280;40029;58.708;50.190;2023-05-19T01:01:13;100440.59;;;16.17;27.59
54122;BME280;40029;58.708;50.190;2023-05-19T01:03:47;100420.88;;;16.09;27.71
54122;BME280;40029;58.708;50.190;2023-05-19T01:06:18;100439.59;;;16.20;27.83
54122;BME280;40029;58.708;50.190;2023-05-19T01:08:50;100482.44;;;16.39;28.09
54122;BME280;40029;58.708;50.190;2023-05-19T01:11:41;100423.28;;;16.13;29.26
54122;BME280;40029;58.708;50.190;2023-05-19T01:14:13;100426.69;;;16.15;29.68
54122;BME280;40029;58.708;50.190;2023-05-19T01:25:46;100433.47;;;16.37;29.82
54122;BME280;40029;58.708;50.190;2023-05-19T01:31:10;100423.44;;;16.10;31.07
54122;BME280;40029;58.708;50.190;2023-05-19T01:33:43;100472.69;;;16.41;30.49
54122;BME280;40029;58.708;50.190;2023-05-19T01:36:15;100465.13;;;16.53;30.07
54122;BME280;40029;58.708;50.190;2023-05-19T01:38:50;100467.03;;;16.84;28.68
54122;BME280;40029;58.708;50.190;2023-05-19T01:41:41;100467.66;;;17.05;27.31
54122;BME280;40029;58.708;50.190;2023-05-19T01:44:14;100447.53;;;17.04;25.77
54122;BME280;40029;58.708;50.190;2023-05-19T01:46:46;100468.09;;;17.29;24.85
54122;BME280;40029;58.708;50.190;2023-05-19T01:49:36;100465.41;;;17.46;23.24
54122;BME280;40029;58.708;50.190;2023-05-19T01:52:26;100473.81;;;17.68;22.49
54122;BME280;40029;58.708;50.190;2023-05-19T01:54:57;100422.31;;;17.47;22.57
54122;BME280;40029;58.708;50.190;2023-05-19T01:58:02;100473.38;;;17.92;21.22
54122;BME280;40029;58.708;50.190;2023-05-19T02:11:46;100476.69;;;18.26;20.39
54122;BME280;40029;58.708;50.190;2023-05-19T02:14:31;100432.78;;;18.10;20.64
54122;BME280;40029;58.708;50.190;2023-05-19T02:17:04;100478.72;;;18.36;21.07
54122;BME280;40029;58.708;50.190;2023-05-19T02:19:38;100474.41;;;18.35;20.51
54122;BME280;40029;58.708;50.190;2023-05-19T02:22:10;100469.88;;;18.37;20.25
54122;BME280;40029;58.708;50.190;2023-05-19T02:24:41;100456.09;;;18.32;20.00
54122;BME280;40029;58.708;50.190;2023-05-19T02:27:12;100415.63;;;18.17;19.63
54122;BME280;40029;58.708;50.190;2023-05-19T02:29:43;100461.22;;;18.49;19.64
54122;BME280;40029;58.708;50.190;2023-05-19T02:32:36;100471.50;;;18.54;19.57
54122;BME280;40029;58.708;50.190;2023-05-19T02:35:07;100418.50;;;18.29;19.81
54122;BME280;40029;58.708;50.190;2023-05-19T02:37:38;100452.75;;;18.59;19.83
54122;BME280;40029;58.708;50.190;2023-05-19T02:40:10;100465.59;;;18.65;19.90
54122;BME280;40029;58.708;50.190;2023-05-19T02:43:00;100470.22;;;18.76;19.10
54122;BME280;40029;58.708;50.190;2023-05-19T02:45:49;100461.47;;;18.75;19.27
54122;BME280;40029;58.708;50.190;2023-05-19T02:48:21;100451.75;;;18.76;18.90
54122;BME280;40029;58.708;50.190;2023-05-19T02:50:52;100429.13;;;18.71;18.44
54122;BME280;40029;58.708;50.190;2023-05-19T02:53:23;100458.34;;;18.97;18.84
54122;BME280;40029;58.708;50.190;2023-05-19T02:55:54;100467.69;;;19.03;18.21
54122;BME280;40029;58.708;50.190;2023-05-19T02:58:25;100409.63;;;18.74;17.88
54122;BME280;40029;58.708;50.190;2023-05-19T03:01:15;100459.69;;;19.04;17.66
54122;BME280;40029;58.708;50.190;2023-05-19T03:03:46;100463.81;;;19.22;17.86
54122;BME280;40029;58.708;50.190;2023-05-19T03:06:17;100472.94;;;19.31;18.14
54122;BME280;40029;58.708;50.190;2023-05-19T03:09:07;100379.06;;;18.84;18.07
54122;BME280;40029;58.708;50.190;2023-05-19T03:11:40;100437.03;;;19.29;17.41
54122;BME280;40029;58.708;50.190;2023-05-19T03:14:11;100474.22;;;19.53;17.44
54122;BME280;40029;58.708;50.190;2023-05-19T03:16:44;100423.28;;;19.36;17.32
54122;BME280;40029;58.708;50.190;2023-05-19T03:19:15;100458.28;;;19.68;17.10
54122;BME280;40029;58.708;50.190;2023-05-19T03:22:04;100430.44;;;19.63;16.86
54122;BME280;40029;58.708;50.190;2023-05-19T03:24:37;100456.97;;;19.88;16.42
54122;BME280;40029;58.708;50.190;2023-05-19T03:27:28;100457.59;;;19.92;16.71
54122;BME280;40029;58.708;50.190;2023-05-19T03:29:59;100466.44;;;20.05;16.34
54122;BME280;40029;58.708;50.190;2023-05-19T03:32:31;100464.22;;;20.12;16.29
54122;BME280;40029;58.708;50.190;2023-05-19T03:35:03;100385.19;;;19.67;16.39
54122;BME280;40029;58.708;50.190;2023-05-19T03:37:35;100480.34;;;20.34;15.84
54122;BME280;40029;58.708;50.190;2023-05-19T03:40:07;100447.06;;;20.17;15.69
54122;BME280;40029;58.708;50.190;2023-05-19T03:42:41;100442.69;;;20.31;15.62
54122;BME280;40029;58.708;50.190;2023-05-19T03:45:12;100418.88;;;20.31;15.41
54122;BME280;40029;58.708;50.190;2023-05-19T03:47:46;100460.38;;;20.56;15.83
54122;BME280;40029;58.708;50.190;2023-05-19T03:50:40;100470.91;;;20.83;15.75
54122;BME280;40029;58.708;50.190;2023-05-19T03:53:32;100431.06;;;20.71;15.61
54122;BME280;40029;58.708;50.190;2023-05-19T03:56:04;100469.91;;;21.09;15.20
54122;BME280;40029;58.708;50.190;2023-05-19T03:58:37;100433.81;;;20.95;14.92
54122;BME280;40029;58.708;50.190;2023-05-19T04:01:10;100474.22;;;21.23;14.66
54122;BME280;40029;58.708;50.190;2023-05-19T04:03:41;100425.84;;;21.08;14.59
54122;BME280;40029;58.708;50.190;2023-05-19T04:06:12;100473.47;;;21.46;14.79
54122;BME280;40029;58.708;50.190;2023-05-19T04:08:44;100453.94;;;21.48;14.57
54122;BME280;40029;58.708;50.190;2023-05-19T04:11:16;100432.66;;;21.36;14.24
54122;BME280;40029;58.708;50.190;2023-05-19T04:13:50;100438.53;;;21.53;14.18
54122;BME280;40029;58.708;50.190;2023-05-19T04:16:21;100426.25;;;21.52;14.25
54122;BME280;40029;58.708;50.190;2023-05-19T04:18:52;100470.75;;;21.83;14.25
54122;BME280;40029;58.708;50.190;2023-05-19T04:21:23;100459.84;;;21.88;14.29
54122;BME280;40029;58.708;50.190;2023-05-19T04:23:54;100461.31;;;21.92;13.75
54122;BME280;40029;58.708;50.190;2023-05-19T04:26:29;100424.56;;;21.75;13.14
54122;BME280;40029;58.708;50.190;2023-05-19T04:29:03;100474.16;;;22.09;12.98
54122;BME280;40029;58.708;50.190;2023-05-19T04:31:53;100415.47;;;21.90;12.77
54122;BME280;40029;58.708;50.190;2023-05-19T04:34:24;100464.09;;;22.26;12.65
54122;BME280;40029;58.708;50.190;2023-05-19T04:36:56;100457.38;;;22.33;12.75
54122;BME280;40029;58.708;50.190;2023-05-19T04:39:27;100458.47;;;22.41;12.53
54122;BME280;40029;58.708;50.190;2023-05-19T04:41:58;100455.94;;;22.51;12.66
54122;BME280;40029;58.708;50.190;2023-05-19T04:44:30;100430.59;;;22.47;12.82
54122;BME280;40029;58.708;50.190;2023-05-19T04:47:01;100454.91;;;22.76;12.45
54122;BME280;40029;58.708;50.190;2023-05-19T04:49:33;100445.72;;;22.80;11.99
54122;BME280;40029;58.708;50.190;2023-05-19T04:52:10;100438.50;;;22.82;11.75
54122;BME280;40029;58.708;50.190;2023-05-19T04:54:59;100442.88;;;22.94;11.82
54122;BME280;40029;58.708;50.190;2023-05-19T04:57:36;100449.63;;;23.10;11.44
54122;BME280;40029;58.708;50.190;2023-05-19T05:00:09;100450.22;;;23.13;11.29
54122;BME280;40029;58.708;50.190;2023-05-19T05:02:57;100445.63;;;23.27;10.96
54122;BME280;40029;58.708;50.190;2023-05-19T05:05:30;100413.00;;;23.13;10.64
54122;BME280;40029;58.708;50.190;2023-05-19T05:08:01;100404.81;;;23.16;10.50
54122;BME280;40029;58.708;50.190;2023-05-19T05:10:38;100405.13;;;23.23;10.49
54122;BME280;40029;58.708;50.190;2023-05-19T05:13:09;100446.16;;;23.53;10.69
54122;BME280;40029;58.708;50.190;2023-05-19T05:15:59;100405.72;;;23.38;10.66
54122;BME280;40029;58.708;50.190;2023-05-19T05:18:31;100404.38;;;23.43;10.20
54122;BME280;40029;58.708;50.190;2023-05-19T05:21:04;100445.03;;;23.78;10.52
54122;BME280;40029;58.708;50.190;2023-05-19T05:23:37;100406.38;;;23.62;9.71
54122;BME280;40029;58.708;50.190;2023-05-19T05:26:16;100425.06;;;23.83;9.28
54122;BME280;40029;58.708;50.190;2023-05-19T05:28:51;100446.38;;;24.04;9.70
54122;BME280;40029;58.708;50.190;2023-05-19T05:31:41;100440.56;;;24.10;9.61
54122;BME280;40029;58.708;50.190;2023-05-19T05:34:13;100453.91;;;24.20;9.53
54122;BME280;40029;58.708;50.190;2023-05-19T05:36:44;100447.13;;;24.27;8.98
54122;BME280;40029;58.708;50.190;2023-05-19T05:39:15;100452.13;;;24.41;8.86
54122;BME280;40029;58.708;50.190;2023-05-19T05:41:48;100464.31;;;24.55;8.65
54122;BME280;40029;58.708;50.190;2023-05-19T05:44:20;100408.09;;;24.37;8.47
54122;BME280;40029;58.708;50.190;2023-05-19T05:46:52;100457.81;;;24.79;8.63
54122;BME280;40029;58.708;50.190;2023-05-19T05:49:23;100458.84;;;24.87;8.64
54122;BME280;40029;58.708;50.190;2023-05-19T05:51:55;100407.75;;;24.73;8.43
54122;BME280;40029;58.708;50.190;2023-05-19T05:54:26;100446.69;;;24.94;8.25
54122;BME280;40029;58.708;50.190;2023-05-19T05:56:57;100415.91;;;24.81;7.25
54122;BME280;40029;58.708;50.190;2023-05-19T05:59:29;100438.72;;;25.04;6.26
54122;BME280;40029;58.708;50.190;2023-05-19T06:02:00;100446.50;;;25.17;6.42
54122;BME280;40029;58.708;50.190;2023-05-19T06:04:31;100443.00;;;25.16;6.46
54122;BME280;40029;58.708;50.190;2023-05-19T06:07:02;100365.28;;;24.81;6.76
54122;BME280;40029;58.708;50.190;2023-05-19T06:09:38;100420.44;;;25.30;6.66
54122;BME280;40029;58.708;50.190;2023-05-19T06:12:11;100403.44;;;25.22;6.34
54122;BME280;40029;58.708;50.190;2023-05-19T06:14:47;100439.00;;;25.51;5.61
54122;BME280;40029;58.708;50.190;2023-05-19T06:17:37;100432.72;;;25.62;5.73
54122;BME280;40029;58.708;50.190;2023-05-19T06:20:09;100416.28;;;25.66;5.38
54122;BME280;40029;58.708;50.190;2023-05-19T06:22:40;100407.81;;;25.61;4.92
54122;BME280;40029;58.708;50.190;2023-05-19T06:25:13;100413.63;;;25.66;4.74
54122;BME280;40029;58.708;50.190;2023-05-19T06:27:44;100454.66;;;25.85;4.41
54122;BME280;40029;58.708;50.190;2023-05-19T06:30:15;100446.22;;;25.89;4.39
54122;BME280;40029;58.708;50.190;2023-05-19T06:33:02;100447.47;;;25.95;4.64
54122;BME280;40029;58.708;50.190;2023-05-19T06:35:34;100421.63;;;25.86;4.88
54122;BME280;40029;58.708;50.190;2023-05-19T06:38:05;100414.47;;;25.86;4.42
54122;BME280;40029;58.708;50.190;2023-05-19T06:40:55;100401.84;;;25.79;4.16
54122;BME280;40029;58.708;50.190;2023-05-19T06:43:26;100405.34;;;25.89;3.84
54122;BME280;40029;58.708;50.190;2023-05-19T06:46:06;100397.34;;;25.89;3.78
54122;BME280;40029;58.708;50.190;2023-05-19T06:48:38;100444.38;;;26.19;4.23
54122;BME280;40029;58.708;50.190;2023-05-19T06:51:09;100436.34;;;26.29;3.97
54122;BME280;40029;58.708;50.190;2023-05-19T06:53:42;100444.38;;;26.38;3.63
54122;BME280;40029;58.708;50.190;2023-05-19T06:56:14;100412.03;;;26.32;3.54
54122;BME280;40029;58.708;50.190;2023-05-19T06:58:46;100437.88;;;26.41;3.29
54122;BME280;40029;58.708;50.190;2023-05-19T07:01:17;100434.09;;;26.43;3.79
54122;BME280;40029;58.708;50.190;2023-05-19T07:03:54;100393.38;;;26.22;3.39
54122;BME280;40029;58.708;50.190;2023-05-19T07:06:25;100429.75;;;26.52;3.85
54122;BME280;40029;58.708;50.190;2023-05-19T07:08:57;100435.09;;;26.52;3.43
54122;BME280;40029;58.708;50.190;2023-05-19T07:11:29;100436.16;;;26.69;3.11
54122;BME280;40029;58.708;50.190;2023-05-19T07:14:19;100440.34;;;26.72;3.69
54122;BME280;40029;58.708;50.190;2023-05-19T07:16:50;100440.22;;;26.73;3.52
54122;BME280;40029;58.708;50.190;2023-05-19T07:19:22;100422.97;;;26.58;3.80
54122;BME280;40029;58.708;50.190;2023-05-19T07:21:54;100400.50;;;26.51;3.57
54122;BME280;40029;58.708;50.190;2023-05-19T07:24:26;100401.06;;;26.45;3.69
54122;BME280;40029;58.708;50.190;2023-05-19T07:26:58;100443.84;;;26.82;3.33
54122;BME280;40029;58.708;50.190;2023-05-19T07:29:29;100406.19;;;26.65;3.41
54122;BME280;40029;58.708;50.190;2023-05-19T07:32:00;100441.19;;;26.82;3.65
54122;BME280;40029;58.708;50.190;2023-05-19T07:34:31;100393.69;;;26.66;3.60
54122;BME280;40029;58.708;50.190;2023-05-19T07:37:02;100397.34;;;26.65;3.22
54122;BME280;40029;58.708;50.190;2023-05-19T07:39:52;100424.94;;;26.93;3.74
54122;BME280;40029;58.708;50.190;2023-05-19T07:42:23;100443.59;;;27.12;3.55
54122;BME280;40029;58.708;50.190;2023-05-19T07:44:54;100440.31;;;27.19;3.42
54122;BME280;40029;58.708;50.190;2023-05-19T07:47:25;100440.25;;;27.10;3.00
54122;BME280;40029;58.708;50.190;2023-05-19T07:49:57;100429.38;;;27.12;2.69
54122;BME280;40029;58.708;50.190;2023-05-19T07:52:28;100444.25;;;27.24;2.30
54122;BME280;40029;58.708;50.190;2023-05-19T07:54:59;100442.34;;;27.34;2.61
54122;BME280;40029;58.708;50.190;2023-05-19T07:57:30;100394.66;;;27.02;2.83
54122;BME280;40029;58.708;50.190;2023-05-19T08:00:03;100448.00;;;27.31;2.35
54122;BME280;40029;58.708;50.190;2023-05-19T08:02:43;100444.63;;;27.29;2.74
54122;BME280;40029;58.708;50.190;2023-05-19T08:05:14;100424.69;;;27.24;2.41
54122;BME280;40029;58.708;50.190;2023-05-19T08:07:46;100356.31;;;26.84;2.59
54122;BME280;40029;58.708;50.190;2023-05-19T08:10:35;100420.66;;;27.10;3.00
54122;BME280;40029;58.708;50.190;2023-05-19T08:13:07;100426.00;;;27.10;2.65
54122;BME280;40029;58.708;50.190;2023-05-19T08:15:38;100428.94;;;27.16;2.71
54122;BME280;40029;58.708;50.190;2023-05-19T08:18:09;100421.59;;;27.19;3.27
54122;BME280;40029;58.708;50.190;2023-05-19T08:20:41;100436.16;;;27.34;2.82
54122;BME280;40029;58.708;50.190;2023-05-19T08:23:12;100435.97;;;27.45;2.35
54122;BME280;40029;58.708;50.190;2023-05-19T08:25:43;100430.59;;;27.45;2.34
54122;BME280;40029;58.708;50.190;2023-05-19T08:28:15;100404.78;;;27.26;2.58
54122;BME280;40029;58.708;50.190;2023-05-19T08:30:46;100424.63;;;27.51;2.89
54122;BME280;40029;58.708;50.190;2023-05-19T08:33:17;100386.69;;;27.20;3.39
54122;BME280;40029;58.708;50.190;2023-05-19T08:35:51;100387.25;;;27.14;2.52
54122;BME280;40029;58.708;50.190;2023-05-19T08:38:24;100377.81;;;27.20;2.57
54122;BME280;40029;58.708;50.190;2023-05-19T08:40:55;100421.66;;;27.36;2.06
54122;BME280;40029;58.708;50.190;2023-05-19T08:43:27;100382.13;;;27.03;2.32
54122;BME280;40029;58.708;50.190;2023-05-19T08:45:59;100427.38;;;27.41;2.40
54122;BME280;40029;58.708;50.190;2023-05-19T08:48:31;100380.59;;;27.28;2.28
54122;BME280;40029;58.708;50.190;2023-05-19T08:51:22;100401.63;;;27.58;2.24
54122;BME280;40029;58.708;50.190;2023-05-19T08:54:02;100388.75;;;27.44;2.13
54122;BME280;40029;58.708;50.190;2023-05-19T08:56:34;100400.53;;;27.51;1.87
54122;BME280;40029;58.708;50.190;2023-05-19T08:59:06;100400.34;;;27.62;1.99
54122;BME280;40029;58.708;50.190;2023-05-19T09:01:38;100425.22;;;27.73;2.43
54122;BME280;40029;58.708;50.190;2023-05-19T09:04:10;100409.75;;;27.66;2.35
54122;BME280;40029;58.708;50.190;2023-05-19T09:06:42;100407.56;;;27.52;1.92
54122;BME280;40029;58.708;50.190;2023-05-19T09:09:14;100420.75;;;27.63;2.36
54122;BME280;40029;58.708;50.190;2023-05-19T09:11:45;100410.28;;;27.70;2.43
54122;BME280;40029;58.708;50.190;2023-05-19T09:14:17;100366.75;;;27.50;2.32
54122;BME280;40029;58.708;50.190;2023-05-19T09:16:48;100403.50;;;27.76;2.24
54122;BME280;40029;58.708;50.190;2023-05-19T09:19:22;100333.34;;;27.36;2.04
54122;BME280;40029;58.708;50.190;2023-05-19T09:22:01;100414.13;;;27.85;2.37
54122;BME280;40029;58.708;50.190;2023-05-19T09:24:36;100409.59;;;27.86;1.91
54122;BME280;40029;58.708;50.190;2023-05-19T09:27:08;100410.03;;;27.99;2.02
54122;BME280;40029;58.708;50.190;2023-05-19T09:30:06;100370.50;;;27.93;1.27
54122;BME280;40029;58.708;50.190;2023-05-19T09:32:38;100410.56;;;28.03;1.83
54122;BME280;40029;58.708;50.190;2023-05-19T09:35:11;100381.03;;;27.95;1.64
54122;BME280;40029;58.708;50.190;2023-05-19T09:37:43;100378.69;;;27.92;1.22
54122;BME280;40029;58.708;50.190;2023-05-19T09:40:14;100407.13;;;28.10;1.83
54122;BME280;40029;58.708;50.190;2023-05-19T09:42:46;100354.66;;;27.82;1.95
54122;BME280;40029;58.708;50.190;2023-05-19T09:45:18;100387.59;;;28.18;1.33
54122;BME280;40029;58.708;50.190;2023-05-19T09:47:50;100396.00;;;28.23;2.09
54122;BME280;40029;58.708;50.190;2023-05-19T09:50:21;100350.22;;;27.90;2.16
54122;BME280;40029;58.708;50.190;2023-05-19T09:52:52;100385.44;;;28.22;2.79
54122;BME280;40029;58.708;50.190;2023-05-19T09:55:30;100380.44;;;28.27;1.67
54122;BME280;40029;58.708;50.190;2023-05-19T09:58:21;100379.59;;;28.26;1.54
54122;BME280;40029;58.708;50.190;2023-05-19T10:01:10;100356.03;;;28.30;1.75
54122;BME280;40029;58.708;50.190;2023-05-19T10:03:43;100386.88;;;28.60;1.68
54122;BME280;40029;58.708;50.190;2023-05-19T10:06:14;100352.72;;;28.36;1.32
54122;BME280;40029;58.708;50.190;2023-05-19T10:08:46;100378.78;;;28.52;1.50
54122;BME280;40029;58.708;50.190;2023-05-19T10:11:21;100390.25;;;28.70;1.25
54122;BME280;40029;58.708;50.190;2023-05-19T10:13:53;100354.09;;;28.40;1.11
54122;BME280;40029;58.708;50.190;2023-05-19T10:16:25;100388.03;;;28.57;0.63
54122;BME280;40029;58.708;50.190;2023-05-19T10:18:59;100390.56;;;28.67;0.95
54122;BME280;40029;58.708;50.190;2023-05-19T10:21:31;100296.06;;;28.31;1.35
54122;BME280;40029;58.708;50.190;2023-05-19T10:24:03;100357.28;;;28.78;1.55
54122;BME280;40029;58.708;50.190;2023-05-19T10:26:34;100345.91;;;28.84;1.36
54122;BME280;40029;58.708;50.190;2023-05-19T10:29:06;100352.56;;;29.06;0.98
54122;BME280;40029;58.708;50.190;2023-05-19T10:31:38;100362.78;;;29.10;1.08
54122;BME280;40029;58.708;50.190;2023-05-19T10:35:10;100321.63;;;28.94;0.95
54122;BME280;40029;58.708;50.190;2023-05-19T10:39:59;100335.53;;;28.89;1.24
54122;BME280;40029;58.708;50.190;2023-05-19T10:42:42;100357.94;;;29.22;1.38
54122;BME280;40029;58.708;50.190;2023-05-19T10:45:16;100371.91;;;29.50;1.18
54122;BME280;40029;58.708;50.190;2023-05-19T10:47:53;100366.72;;;29.41;1.04
54122;BME280;40029;58.708;50.190;2023-05-19T10:50:24;100334.97;;;29.20;0.86
54122;BME280;40029;58.708;50.190;2023-05-19T10:52:56;100367.56;;;29.41;0.51
54122;BME280;40029;58.708;50.190;2023-05-19T10:55:49;100368.59;;;29.56;0.85
54122;BME280;40029;58.708;50.190;2023-05-19T11:01:34;100358.94;;;29.13;0.71
54122;BME280;40029;58.708;50.190;2023-05-19T11:04:08;100334.25;;;29.09;0.87
54122;BME280;40029;58.708;50.190;2023-05-19T11:06:49;100359.47;;;29.33;0.80
54122;BME280;40029;58.708;50.190;2023-05-19T11:09:22;100309.28;;;29.09;0.55
54122;BME280;40029;58.708;50.190;2023-05-19T11:11:53;100337.00;;;29.42;1.62
54122;BME280;40029;58.708;50.190;2023-05-19T11:14:25;100351.16;;;29.69;1.02
54122;BME280;40029;58.708;50.190;2023-05-19T11:16:58;100307.66;;;29.41;0.85
54122;BME280;40029;58.708;50.190;2023-05-19T11:19:35;100341.75;;;29.89;0.87
54122;BME280;40029;58.708;50.190;2023-05-19T11:22:08;100292.56;;;29.80;0.71
54122;BME280;40029;58.708;50.190;2023-05-19T11:27:28;100269.50;;;30.19;1.15
54122;BME280;40029;58.708;50.190;2023-05-19T11:30:08;100290.97;;;30.66;0.45
54122;BME280;40029;58.708;50.190;2023-05-19T11:32:46;100354.06;;;31.57;0.00
54122;BME280;40029;58.708;50.190;2023-05-19T11:35:18;100290.66;;;31.69;0.00
54122;BME280;40029;58.708;50.190;2023-05-19T11:37:53;100319.84;;;32.33;0.00
54122;BME280;40029;58.708;50.190;2023-05-19T11:40:25;100306.56;;;32.82;0.00
54122;BME280;40029;58.708;50.190;2023-05-19T11:42:57;100338.78;;;33.56;0.00
54122;BME280;40029;58.708;50.190;2023-05-19T11:45:30;100344.03;;;34.14;0.00
54122;BME280;40029;58.708;50.190;2023-05-19T11:48:02;100304.47;;;34.41;0.00
54122;BME280;40029;58.708;50.190;2023-05-19T11:50:52;100322.47;;;35.10;0.00
54122;BME280;40029;58.708;50.190;2023-05-19T11:53:23;100333.97;;;35.39;0.00
54122;BME280;40029;58.708;50.190;2023-05-19T11:55:55;100331.94;;;35.74;0.00
54122;BME280;40029;58.708;50.190;2023-05-19T11:58:26;100338.41;;;35.99;0.00
54122;BME280;40029;58.708;50.190;2023-05-19T12:01:03;100299.34;;;36.14;0.00
54122;BME280;40029;58.708;50.190;2023-05-19T12:03:34;100326.91;;;35.97;0.00
54122;BME280;40029;58.708;50.190;2023-05-19T12:06:06;100302.91;;;35.81;0.00
54122;BME280;40029;58.708;50.190;2023-05-19T12:08:38;100321.09;;;35.74;0.00
54122;BME280;40029;58.708;50.190;2023-05-19T12:11:09;100305.03;;;35.86;0.00
54122;BME280;40029;58.708;50.190;2023-05-19T12:14:00;100336.94;;;36.03;0.00
54122;BME280;40029;58.708;50.190;2023-05-19T12:16:32;100341.91;;;36.26;0.00
54122;BME280;40029;58.708;50.190;2023-05-19T12:19:23;100338.16;;;36.21;0.00
54122;BME280;40029;58.708;50.190;2023-05-19T12:22:14;100300.38;;;36.26;0.00
54122;BME280;40029;58.708;50.190;2023-05-19T12:24:46;100289.06;;;36.36;0.00
54122;BME280;40029;58.708;50.190;2023-05-19T12:27:19;100336.41;;;36.60;0.00
54122;BME280;40029;58.708;50.190;2023-05-19T12:29:52;100323.72;;;36.27;0.00
54122;BME280;40029;58.708;50.190;2023-05-19T12:32:42;100338.53;;;36.44;0.00
54122;BME280;40029;58.708;50.190;2023-05-19T12:35:14;100336.56;;;36.71;0.00
54122;BME280;40029;58.708;50.190;2023-05-19T12:37:45;100331.50;;;36.82;0.00
54122;BME280;40029;58.708;50.190;2023-05-19T12:40:19;100330.66;;;36.88;0.00
54122;BME280;40029;58.708;50.190;2023-05-19T12:42:55;100311.13;;;36.59;0.00
54122;BME280;40029;58.708;50.190;2023-05-19T12:45:36;100338.09;;;36.54;0.00
54122;BME280;40029;58.708;50.190;2023-05-19T12:48:11;100320.75;;;36.55;0.00
54122;BME280;40029;58.708;50.190;2023-05-19T12:50:44;100344.72;;;36.65;0.00
54122;BME280;40029;58.708;50.190;2023-05-19T12:53:15;100346.63;;;36.64;0.00
54122;BME280;40029;58.708;50.190;2023-05-19T12:55:46;100312.03;;;36.46;0.00
54122;BME280;40029;58.708;50.190;2023-05-19T12:58:17;100353.97;;;36.50;0.00
54122;BME280;40029;58.708;50.190;2023-05-19T13:00:48;100344.44;;;36.01;0.00
54122;BME280;40029;58.708;50.190;2023-05-19T13:03:20;100345.03;;;36.23;0.00
54122;BME280;40029;58.708;50.190;2023-05-19T13:05:51;100341.91;;;36.26;0.00
54122;BME280;40029;58.708;50.190;2023-05-19T13:08:23;100318.78;;;35.58;0.00
54122;BME280;40029;58.708;50.190;2023-05-19T13:11:12;100353.41;;;35.82;0.00
54122;BME280;40029;58.708;50.190;2023-05-19T13:13:44;100352.56;;;35.95;0.00
54122;BME280;40029;58.708;50.190;2023-05-19T13:16:33;100348.81;;;36.09;0.00
54122;BME280;40029;58.708;50.190;2023-05-19T13:19:04;100357.16;;;36.14;0.00
54122;BME280;40029;58.708;50.190;2023-05-19T13:21:54;100364.25;;;35.95;0.00
54122;BME280;40029;58.708;50.190;2023-05-19T13:24:25;100361.75;;;35.87;0.00
54122;BME280;40029;58.708;50.190;2023-05-19T13:26:56;100360.91;;;35.93;0.00
54122;BME280;40029;58.708;50.190;2023-05-19T13:29:27;100363.59;;;35.93;0.00
54122;BME280;40029;58.708;50.190;2023-05-19T13:31:59;100322.53;;;35.83;0.00
54122;BME280;40029;58.708;50.190;2023-05-19T13:34:30;100355.91;;;35.90;0.00
54122;BME280;40029;58.708;50.190;2023-05-19T13:37:01;100358.81;;;35.75;0.00
54122;BME280;40029;58.708;50.190;2023-05-19T13:39:32;100316.28;;;35.63;0.00
54122;BME280;40029;58.708;50.190;2023-05-19T13:42:03;100317.06;;;35.37;0.00
54122;BME280;40029;58.708;50.190;2023-05-19T13:44:36;100332.50;;;35.36;0.00
54122;BME280;40029;58.708;50.190;2023-05-19T13:47:07;100328.53;;;35.19;0.00
54122;BME280;40029;58.708;50.190;2023-05-19T13:49:38;100332.91;;;35.26;0.00
54122;BME280;40029;58.708;50.190;2023-05-19T13:52:11;100360.44;;;35.37;0.00
54122;BME280;40029;58.708;50.190;2023-05-19T13:54:42;100363.00;;;35.51;0.00
54122;BME280;40029;58.708;50.190;2023-05-19T13:57:14;100325.41;;;35.35;0.00